In Rescue
 
Open Full Screen Window  High Contrast Mode
Wind Gusting 20 knots
14
April 19, 2021 7:31 PM CDT
Weather Information
Wind Direction
  290 °
Wind Speed
  14 kt (16 mph)
Wind Gust
  20 kt (23 mph)
Altimeter
30.05 in
Visibility
10 SM
Temperature
04° C
39° F
Dewpoint
-10° C
14° F
Humidity
36%
1hr Rain Fall
00.00 in.
24hr Rain Fall
00.00 in.
Sky Condition
Overcast @ 7,000 ft
VFR

METAR KHCD 200031Z AUTO 29014G20KT 10SM OVC070 04/M10 A3005 RMK AO2 T00411102

FAA Disclaimer: The data displayed is for advisory purposes only and is not to be used for flight planning or operations.